Rechercher aéroport 
image banner adimage banner adimage banner ad
image banner ad

M90 - William Robert Johnston Muni

Situé à Mendota, United States

ICAO - M90, IATA -

Données fournies par Airmate  

Information générale

Coordonnées: N36°45'31" W120°22'17"
Élévation : 162 feet MSL.
Variation magnétique : 15° East
Voir autres Aéroports à California

Données opérationnelles

Special qualification required
Heure actuelle UTC:
Heure actuelle locale:
Météo à : KMAE - Madera Muni ( 34 km )
METAR: KMAE 251153Z AUTO 32005KT 10SM CLR 21/11 A2987 RMK AO2 SLP111 T02060111 10261 20200 52001
Voir NOTAMs / SUP AIP / TFR affectant cet aéroport [VIEW]
Fréquences de communication: [VIEW]

Pistes:

Identifiant RWYQFULongueur (ft)Largeur (ft)SurfaceLDA (ft)
15349950ASPH
33349950ASPH

Coordonnées de l'aéroport

Adresse: Mendota United States

Vue satellite de M90